sensor_id;sensor_type;location;lat;lon;timestamp;P1;durP1;ratioP1;P2;durP2;ratioP2
7703;SDS011;3894;49.700;10.770;2022-07-23T00:00:05;10.65;;;7.53;;
7703;SDS011;3894;49.700;10.770;2022-07-23T00:02:31;10.18;;;7.30;;
7703;SDS011;3894;49.700;10.770;2022-07-23T00:04:57;9.60;;;7.25;;
7703;SDS011;3894;49.700;10.770;2022-07-23T00:07:22;10.65;;;7.32;;
7703;SDS011;3894;49.700;10.770;2022-07-23T00:09:48;8.82;;;7.10;;
7703;SDS011;3894;49.700;10.770;2022-07-23T00:12:13;9.90;;;7.18;;
7703;SDS011;3894;49.700;10.770;2022-07-23T00:14:42;10.93;;;7.72;;
7703;SDS011;3894;49.700;10.770;2022-07-23T00:17:08;9.50;;;7.40;;
7703;SDS011;3894;49.700;10.770;2022-07-23T00:19:33;10.20;;;7.63;;
7703;SDS011;3894;49.700;10.770;2022-07-23T00:21:59;11.82;;;7.80;;
7703;SDS011;3894;49.700;10.770;2022-07-23T00:24:24;9.15;;;7.20;;
7703;SDS011;3894;49.700;10.770;2022-07-23T00:26:50;9.13;;;6.82;;
7703;SDS011;3894;49.700;10.770;2022-07-23T00:29:16;10.50;;;6.88;;
7703;SDS011;3894;49.700;10.770;2022-07-23T00:31:41;11.13;;;7.18;;
7703;SDS011;3894;49.700;10.770;2022-07-23T00:34:07;10.65;;;7.32;;
7703;SDS011;3894;49.700;10.770;2022-07-23T00:36:33;8.57;;;6.95;;
7703;SDS011;3894;49.700;10.770;2022-07-23T00:38:58;9.50;;;7.00;;
7703;SDS011;3894;49.700;10.770;2022-07-23T00:41:24;9.50;;;7.10;;
7703;SDS011;3894;49.700;10.770;2022-07-23T00:43:50;9.45;;;7.43;;
7703;SDS011;3894;49.700;10.770;2022-07-23T00:46:22;7.97;;;6.75;;
7703;SDS011;3894;49.700;10.770;2022-07-23T00:48:52;8.60;;;7.03;;
7703;SDS011;3894;49.700;10.770;2022-07-23T00:51:17;8.80;;;7.15;;
7703;SDS011;3894;49.700;10.770;2022-07-23T00:53:46;9.48;;;6.90;;
7703;SDS011;3894;49.700;10.770;2022-07-23T00:56:12;9.18;;;6.82;;
7703;SDS011;3894;49.700;10.770;2022-07-23T00:58:38;10.20;;;7.40;;
7703;SDS011;3894;49.700;10.770;2022-07-23T01:01:04;9.68;;;6.82;;
7703;SDS011;3894;49.700;10.770;2022-07-23T01:03:30;10.73;;;7.03;;
7703;SDS011;3894;49.700;10.770;2022-07-23T01:05:56;10.27;;;6.85;;
7703;SDS011;3894;49.700;10.770;2022-07-23T01:08:22;9.73;;;6.82;;
7703;SDS011;3894;49.700;10.770;2022-07-23T01:10:48;9.00;;;6.75;;
7703;SDS011;3894;49.700;10.770;2022-07-23T01:13:16;9.23;;;6.88;;
7703;SDS011;3894;49.700;10.770;2022-07-23T01:15:41;9.48;;;7.35;;
7703;SDS011;3894;49.700;10.770;2022-07-23T01:18:07;8.50;;;6.93;;
7703;SDS011;3894;49.700;10.770;2022-07-23T01:20:34;9.15;;;7.20;;
7703;SDS011;3894;49.700;10.770;2022-07-23T01:22:59;10.88;;;7.55;;
7703;SDS011;3894;49.700;10.770;2022-07-23T01:25:25;9.73;;;7.15;;
7703;SDS011;3894;49.700;10.770;2022-07-23T01:27:54;13.10;;;7.40;;
7703;SDS011;3894;49.700;10.770;2022-07-23T01:30:22;13.73;;;7.90;;
7703;SDS011;3894;49.700;10.770;2022-07-23T01:32:48;10.88;;;8.02;;
7703;SDS011;3894;49.700;10.770;2022-07-23T01:35:14;12.65;;;8.23;;
7703;SDS011;3894;49.700;10.770;2022-07-23T01:37:39;11.52;;;8.23;;
7703;SDS011;3894;49.700;10.770;2022-07-23T01:40:05;12.80;;;8.30;;
7703;SDS011;3894;49.700;10.770;2022-07-23T01:42:32;11.82;;;8.40;;
7703;SDS011;3894;49.700;10.770;2022-07-23T01:44:57;12.02;;;8.52;;
7703;SDS011;3894;49.700;10.770;2022-07-23T01:47:23;10.52;;;8.15;;
7703;SDS011;3894;49.700;10.770;2022-07-23T01:49:50;9.18;;;8.00;;
7703;SDS011;3894;49.700;10.770;2022-07-23T01:52:16;12.52;;;9.15;;
7703;SDS011;3894;49.700;10.770;2022-07-23T01:54:41;12.02;;;7.68;;
7703;SDS011;3894;49.700;10.770;2022-07-23T01:57:07;10.05;;;7.57;;
7703;SDS011;3894;49.700;10.770;2022-07-23T01:59:33;13.13;;;8.20;;
7703;SDS011;3894;49.700;10.770;2022-07-23T02:01:59;10.10;;;8.45;;
7703;SDS011;3894;49.700;10.770;2022-07-23T02:04:25;11.65;;;9.02;;
7703;SDS011;3894;49.700;10.770;2022-07-23T02:06:51;11.77;;;8.90;;
7703;SDS011;3894;49.700;10.770;2022-07-23T02:09:18;11.00;;;9.27;;
7703;SDS011;3894;49.700;10.770;2022-07-23T02:11:43;11.90;;;9.10;;
7703;SDS011;3894;49.700;10.770;2022-07-23T02:14:10;12.05;;;9.55;;
7703;SDS011;3894;49.700;10.770;2022-07-23T02:16:37;11.35;;;9.15;;
7703;SDS011;3894;49.700;10.770;2022-07-23T02:19:03;13.70;;;9.63;;
7703;SDS011;3894;49.700;10.770;2022-07-23T02:21:29;11.57;;;9.90;;
7703;SDS011;3894;49.700;10.770;2022-07-23T02:23:54;11.45;;;9.45;;
7703;SDS011;3894;49.700;10.770;2022-07-23T02:26:20;12.95;;;8.88;;
7703;SDS011;3894;49.700;10.770;2022-07-23T02:28:46;10.25;;;8.43;;
7703;SDS011;3894;49.700;10.770;2022-07-23T02:31:12;10.93;;;8.07;;
7703;SDS011;3894;49.700;10.770;2022-07-23T02:33:38;10.73;;;8.65;;
7703;SDS011;3894;49.700;10.770;2022-07-23T02:36:03;13.60;;;8.80;;
7703;SDS011;3894;49.700;10.770;2022-07-23T02:38:29;11.43;;;8.90;;
7703;SDS011;3894;49.700;10.770;2022-07-23T02:40:55;13.93;;;10.02;;
7703;SDS011;3894;49.700;10.770;2022-07-23T02:43:24;11.02;;;8.68;;
7703;SDS011;3894;49.700;10.770;2022-07-23T02:45:50;11.35;;;9.07;;
7703;SDS011;3894;49.700;10.770;2022-07-23T02:48:15;10.85;;;8.70;;
7703;SDS011;3894;49.700;10.770;2022-07-23T02:50:41;10.23;;;8.68;;
7703;SDS011;3894;49.700;10.770;2022-07-23T02:53:07;11.73;;;9.40;;
7703;SDS011;3894;49.700;10.770;2022-07-23T02:55:32;10.35;;;9.07;;
7703;SDS011;3894;49.700;10.770;2022-07-23T02:57:58;11.40;;;9.20;;
7703;SDS011;3894;49.700;10.770;2022-07-23T03:00:23;11.00;;;8.80;;
7703;SDS011;3894;49.700;10.770;2022-07-23T03:02:49;13.82;;;9.63;;
7703;SDS011;3894;49.700;10.770;2022-07-23T03:05:15;11.85;;;8.70;;
7703;SDS011;3894;49.700;10.770;2022-07-23T03:07:40;12.10;;;9.00;;
7703;SDS011;3894;49.700;10.770;2022-07-23T03:10:06;13.23;;;9.35;;
7703;SDS011;3894;49.700;10.770;2022-07-23T03:12:41;12.07;;;9.10;;
7703;SDS011;3894;49.700;10.770;2022-07-23T03:15:13;11.85;;;9.25;;
7703;SDS011;3894;49.700;10.770;2022-07-23T03:17:41;14.45;;;9.32;;
7703;SDS011;3894;49.700;10.770;2022-07-23T03:20:07;12.55;;;9.75;;
7703;SDS011;3894;49.700;10.770;2022-07-23T03:22:34;11.88;;;8.98;;
7703;SDS011;3894;49.700;10.770;2022-07-23T03:25:00;11.75;;;8.52;;
7703;SDS011;3894;49.700;10.770;2022-07-23T03:27:27;10.27;;;8.27;;
7703;SDS011;3894;49.700;10.770;2022-07-23T03:29:55;13.57;;;9.57;;
7703;SDS011;3894;49.700;10.770;2022-07-23T03:32:22;11.40;;;9.05;;
7703;SDS011;3894;49.700;10.770;2022-07-23T03:34:48;13.25;;;9.05;;
7703;SDS011;3894;49.700;10.770;2022-07-23T03:37:14;11.77;;;8.75;;
7703;SDS011;3894;49.700;10.770;2022-07-23T03:39:41;12.02;;;8.93;;
7703;SDS011;3894;49.700;10.770;2022-07-23T03:42:07;11.13;;;9.35;;
7703;SDS011;3894;49.700;10.770;2022-07-23T03:44:33;12.52;;;8.75;;
7703;SDS011;3894;49.700;10.770;2022-07-23T03:46:59;11.57;;;9.32;;
7703;SDS011;3894;49.700;10.770;2022-07-23T03:49:24;12.15;;;9.38;;
7703;SDS011;3894;49.700;10.770;2022-07-23T03:51:53;11.65;;;9.20;;
7703;SDS011;3894;49.700;10.770;2022-07-23T03:54:25;13.95;;;10.10;;
7703;SDS011;3894;49.700;10.770;2022-07-23T03:56:51;12.00;;;9.55;;
7703;SDS011;3894;49.700;10.770;2022-07-23T03:59:17;14.07;;;9.88;;
7703;SDS011;3894;49.700;10.770;2022-07-23T04:01:42;12.60;;;9.77;;
7703;SDS011;3894;49.700;10.770;2022-07-23T04:04:08;12.00;;;9.43;;
7703;SDS011;3894;49.700;10.770;2022-07-23T04:06:34;12.90;;;9.00;;
7703;SDS011;3894;49.700;10.770;2022-07-23T04:09:00;11.95;;;9.27;;
7703;SDS011;3894;49.700;10.770;2022-07-23T04:11:27;12.32;;;9.40;;
7703;SDS011;3894;49.700;10.770;2022-07-23T04:13:52;11.05;;;9.15;;
7703;SDS011;3894;49.700;10.770;2022-07-23T04:16:18;12.68;;;9.18;;
7703;SDS011;3894;49.700;10.770;2022-07-23T04:18:46;12.70;;;9.90;;
7703;SDS011;3894;49.700;10.770;2022-07-23T04:21:12;11.27;;;9.05;;
7703;SDS011;3894;49.700;10.770;2022-07-23T04:23:38;13.18;;;9.35;;
7703;SDS011;3894;49.700;10.770;2022-07-23T04:26:03;14.32;;;9.73;;
7703;SDS011;3894;49.700;10.770;2022-07-23T04:28:29;13.00;;;9.10;;
7703;SDS011;3894;49.700;10.770;2022-07-23T04:31:04;12.02;;;9.30;;
7703;SDS011;3894;49.700;10.770;2022-07-23T04:33:29;10.85;;;9.05;;
7703;SDS011;3894;49.700;10.770;2022-07-23T04:35:55;11.48;;;9.60;;
7703;SDS011;3894;49.700;10.770;2022-07-23T04:38:21;11.40;;;9.70;;
7703;SDS011;3894;49.700;10.770;2022-07-23T04:40:46;16.52;;;10.18;;
7703;SDS011;3894;49.700;10.770;2022-07-23T04:43:12;14.48;;;10.68;;
7703;SDS011;3894;49.700;10.770;2022-07-23T04:45:37;13.82;;;10.40;;
7703;SDS011;3894;49.700;10.770;2022-07-23T04:48:03;12.68;;;9.70;;
7703;SDS011;3894;49.700;10.770;2022-07-23T04:50:29;12.27;;;9.98;;
7703;SDS011;3894;49.700;10.770;2022-07-23T04:52:55;12.70;;;9.63;;
7703;SDS011;3894;49.700;10.770;2022-07-23T04:55:23;12.20;;;9.32;;
7703;SDS011;3894;49.700;10.770;2022-07-23T04:57:49;12.65;;;9.43;;
7703;SDS011;3894;49.700;10.770;2022-07-23T05:00:21;13.27;;;10.23;;
7703;SDS011;3894;49.700;10.770;2022-07-23T05:02:46;12.65;;;10.07;;
7703;SDS011;3894;49.700;10.770;2022-07-23T05:05:12;13.00;;;10.45;;
7703;SDS011;3894;49.700;10.770;2022-07-23T05:07:38;13.00;;;10.63;;
7703;SDS011;3894;49.700;10.770;2022-07-23T05:10:04;13.13;;;10.23;;
7703;SDS011;3894;49.700;10.770;2022-07-23T05:12:29;12.85;;;10.30;;
7703;SDS011;3894;49.700;10.770;2022-07-23T05:14:55;14.07;;;11.25;;
7703;SDS011;3894;49.700;10.770;2022-07-23T05:17:21;14.68;;;10.77;;
7703;SDS011;3894;49.700;10.770;2022-07-23T05:19:46;13.90;;;10.55;;
7703;SDS011;3894;49.700;10.770;2022-07-23T05:22:12;13.82;;;11.32;;
7703;SDS011;3894;49.700;10.770;2022-07-23T05:24:37;14.35;;;12.27;;
7703;SDS011;3894;49.700;10.770;2022-07-23T05:27:03;17.70;;;11.70;;
7703;SDS011;3894;49.700;10.770;2022-07-23T05:29:28;14.02;;;11.27;;
7703;SDS011;3894;49.700;10.770;2022-07-23T05:31:54;14.32;;;11.30;;
7703;SDS011;3894;49.700;10.770;2022-07-23T05:34:19;15.15;;;11.70;;
7703;SDS011;3894;49.700;10.770;2022-07-23T05:36:45;13.80;;;10.63;;
7703;SDS011;3894;49.700;10.770;2022-07-23T05:39:10;13.90;;;11.95;;
7703;SDS011;3894;49.700;10.770;2022-07-23T05:41:36;14.25;;;11.45;;
7703;SDS011;3894;49.700;10.770;2022-07-23T05:44:01;12.20;;;10.80;;
7703;SDS011;3894;49.700;10.770;2022-07-23T05:46:27;14.30;;;10.30;;
7703;SDS011;3894;49.700;10.770;2022-07-23T05:48:52;11.98;;;10.52;;
7703;SDS011;3894;49.700;10.770;2022-07-23T05:51:22;12.40;;;10.45;;
7703;SDS011;3894;49.700;10.770;2022-07-23T05:53:48;13.18;;;10.90;;
7703;SDS011;3894;49.700;10.770;2022-07-23T05:56:14;13.65;;;11.10;;
7703;SDS011;3894;49.700;10.770;2022-07-23T05:58:40;14.60;;;10.63;;
7703;SDS011;3894;49.700;10.770;2022-07-23T06:01:05;13.85;;;10.85;;
7703;SDS011;3894;49.700;10.770;2022-07-23T06:03:31;14.98;;;10.18;;
7703;SDS011;3894;49.700;10.770;2022-07-23T06:05:56;14.70;;;11.23;;
7703;SDS011;3894;49.700;10.770;2022-07-23T06:08:22;15.10;;;11.13;;
7703;SDS011;3894;49.700;10.770;2022-07-23T06:10:47;14.70;;;11.05;;
7703;SDS011;3894;49.700;10.770;2022-07-23T06:13:13;14.38;;;11.30;;
7703;SDS011;3894;49.700;10.770;2022-07-23T06:15:39;12.98;;;10.80;;
7703;SDS011;3894;49.700;10.770;2022-07-23T06:18:04;13.43;;;10.18;;
7703;SDS011;3894;49.700;10.770;2022-07-23T06:20:30;13.07;;;9.82;;
7703;SDS011;3894;49.700;10.770;2022-07-23T06:22:56;14.85;;;10.25;;
7703;SDS011;3894;49.700;10.770;2022-07-23T06:25:21;12.80;;;9.25;;
7703;SDS011;3894;49.700;10.770;2022-07-23T06:27:47;11.05;;;8.60;;
7703;SDS011;3894;49.700;10.770;2022-07-23T06:30:13;10.32;;;8.73;;
7703;SDS011;3894;49.700;10.770;2022-07-23T06:32:41;10.73;;;8.65;;
7703;SDS011;3894;49.700;10.770;2022-07-23T06:35:06;11.68;;;9.00;;
7703;SDS011;3894;49.700;10.770;2022-07-23T06:37:32;11.20;;;8.05;;
7703;SDS011;3894;49.700;10.770;2022-07-23T06:39:58;9.43;;;7.40;;
7703;SDS011;3894;49.700;10.770;2022-07-23T06:42:23;10.15;;;7.88;;
7703;SDS011;3894;49.700;10.770;2022-07-23T06:44:49;9.27;;;8.00;;
7703;SDS011;3894;49.700;10.770;2022-07-23T06:47:14;11.10;;;7.72;;
7703;SDS011;3894;49.700;10.770;2022-07-23T06:49:40;11.73;;;7.72;;
7703;SDS011;3894;49.700;10.770;2022-07-23T06:52:06;10.35;;;7.30;;
7703;SDS011;3894;49.700;10.770;2022-07-23T06:54:32;9.25;;;7.18;;
7703;SDS011;3894;49.700;10.770;2022-07-23T06:56:57;10.43;;;7.93;;
7703;SDS011;3894;49.700;10.770;2022-07-23T06:59:23;10.65;;;8.63;;
7703;SDS011;3894;49.700;10.770;2022-07-23T07:01:49;11.10;;;7.70;;
7703;SDS011;3894;49.700;10.770;2022-07-23T07:04:14;9.13;;;7.65;;
7703;SDS011;3894;49.700;10.770;2022-07-23T07:06:40;9.10;;;7.65;;
7703;SDS011;3894;49.700;10.770;2022-07-23T07:09:06;10.73;;;8.10;;
7703;SDS011;3894;49.700;10.770;2022-07-23T07:11:31;10.40;;;7.57;;
7703;SDS011;3894;49.700;10.770;2022-07-23T07:13:57;11.45;;;7.80;;
7703;SDS011;3894;49.700;10.770;2022-07-23T07:16:22;11.57;;;7.57;;
7703;SDS011;3894;49.700;10.770;2022-07-23T07:18:48;13.35;;;8.10;;
7703;SDS011;3894;49.700;10.770;2022-07-23T07:21:14;11.18;;;8.23;;
7703;SDS011;3894;49.700;10.770;2022-07-23T07:23:39;11.18;;;8.45;;
7703;SDS011;3894;49.700;10.770;2022-07-23T07:26:05;11.38;;;7.82;;
7703;SDS011;3894;49.700;10.770;2022-07-23T07:28:31;10.95;;;7.97;;
7703;SDS011;3894;49.700;10.770;2022-07-23T07:30:56;9.63;;;7.07;;
7703;SDS011;3894;49.700;10.770;2022-07-23T07:33:22;12.13;;;8.13;;
7703;SDS011;3894;49.700;10.770;2022-07-23T07:35:47;11.27;;;8.15;;
7703;SDS011;3894;49.700;10.770;2022-07-23T07:38:13;11.00;;;8.40;;
7703;SDS011;3894;49.700;10.770;2022-07-23T07:40:39;10.88;;;8.02;;
7703;SDS011;3894;49.700;10.770;2022-07-23T07:43:04;12.20;;;8.80;;
7703;SDS011;3894;49.700;10.770;2022-07-23T07:45:30;12.00;;;8.15;;
7703;SDS011;3894;49.700;10.770;2022-07-23T07:47:56;13.95;;;8.93;;
7703;SDS011;3894;49.700;10.770;2022-07-23T07:50:22;11.50;;;8.63;;
7703;SDS011;3894;49.700;10.770;2022-07-23T07:52:48;11.25;;;9.27;;
7703;SDS011;3894;49.700;10.770;2022-07-23T07:55:14;12.07;;;9.35;;
7703;SDS011;3894;49.700;10.770;2022-07-23T07:57:40;12.10;;;9.35;;
7703;SDS011;3894;49.700;10.770;2022-07-23T08:00:06;11.95;;;9.38;;
7703;SDS011;3894;49.700;10.770;2022-07-23T08:02:43;13.40;;;9.55;;
7703;SDS011;3894;49.700;10.770;2022-07-23T08:05:10;12.82;;;10.02;;
7703;SDS011;3894;49.700;10.770;2022-07-23T08:07:37;11.30;;;9.18;;
7703;SDS011;3894;49.700;10.770;2022-07-23T08:10:04;11.30;;;9.40;;
7703;SDS011;3894;49.700;10.770;2022-07-23T08:12:40;13.15;;;9.70;;
7703;SDS011;3894;49.700;10.770;2022-07-23T08:15:09;12.68;;;9.48;;
7703;SDS011;3894;49.700;10.770;2022-07-23T08:17:35;11.93;;;9.63;;
7703;SDS011;3894;49.700;10.770;2022-07-23T08:20:01;11.90;;;9.63;;
7703;SDS011;3894;49.700;10.770;2022-07-23T08:22:48;14.52;;;9.85;;
7703;SDS011;3894;49.700;10.770;2022-07-23T08:25:14;13.55;;;10.27;;
7703;SDS011;3894;49.700;10.770;2022-07-23T08:27:40;13.50;;;10.20;;
7703;SDS011;3894;49.700;10.770;2022-07-23T08:30:06;13.95;;;10.43;;
7703;SDS011;3894;49.700;10.770;2022-07-23T08:32:32;14.93;;;10.48;;
7703;SDS011;3894;49.700;10.770;2022-07-23T08:34:58;12.73;;;10.60;;
7703;SDS011;3894;49.700;10.770;2022-07-23T08:37:23;15.00;;;9.93;;
7703;SDS011;3894;49.700;10.770;2022-07-23T08:39:49;12.27;;;10.45;;
7703;SDS011;3894;49.700;10.770;2022-07-23T08:42:14;13.55;;;10.75;;
7703;SDS011;3894;49.700;10.770;2022-07-23T08:44:41;14.02;;;10.75;;
7703;SDS011;3894;49.700;10.770;2022-07-23T08:47:11;12.20;;;9.85;;
7703;SDS011;3894;49.700;10.770;2022-07-23T08:49:37;13.90;;;11.25;;
7703;SDS011;3894;49.700;10.770;2022-07-23T08:52:04;14.05;;;11.60;;
7703;SDS011;3894;49.700;10.770;2022-07-23T08:54:30;15.45;;;11.10;;
7703;SDS011;3894;49.700;10.770;2022-07-23T08:56:56;14.02;;;11.27;;
7703;SDS011;3894;49.700;10.770;2022-07-23T08:59:22;14.25;;;11.40;;
7703;SDS011;3894;49.700;10.770;2022-07-23T09:01:48;15.05;;;10.77;;
7703;SDS011;3894;49.700;10.770;2022-07-23T09:04:13;14.75;;;11.57;;
7703;SDS011;3894;49.700;10.770;2022-07-23T09:06:39;16.10;;;12.20;;
7703;SDS011;3894;49.700;10.770;2022-07-23T09:09:17;13.50;;;10.77;;
7703;SDS011;3894;49.700;10.770;2022-07-23T09:11:47;13.98;;;11.45;;
7703;SDS011;3894;49.700;10.770;2022-07-23T09:14:39;13.70;;;10.77;;
7703;SDS011;3894;49.700;10.770;2022-07-23T09:17:13;14.80;;;11.23;;
7703;SDS011;3894;49.700;10.770;2022-07-23T09:19:40;15.23;;;11.20;;
7703;SDS011;3894;49.700;10.770;2022-07-23T09:22:16;15.77;;;11.02;;
7703;SDS011;3894;49.700;10.770;2022-07-23T09:25:02;12.57;;;9.80;;
7703;SDS011;3894;49.700;10.770;2022-07-23T09:27:46;11.40;;;9.73;;
7703;SDS011;3894;49.700;10.770;2022-07-23T09:30:13;11.25;;;9.52;;
7703;SDS011;3894;49.700;10.770;2022-07-23T09:32:40;11.63;;;8.88;;
7703;SDS011;3894;49.700;10.770;2022-07-23T09:35:06;13.23;;;9.70;;
7703;SDS011;3894;49.700;10.770;2022-07-23T09:37:32;11.52;;;8.90;;
7703;SDS011;3894;49.700;10.770;2022-07-23T09:40:05;11.80;;;8.63;;
7703;SDS011;3894;49.700;10.770;2022-07-23T09:42:33;10.85;;;8.55;;
7703;SDS011;3894;49.700;10.770;2022-07-23T09:44:59;12.48;;;9.40;;
7703;SDS011;3894;49.700;10.770;2022-07-23T09:47:27;10.85;;;9.05;;
7703;SDS011;3894;49.700;10.770;2022-07-23T09:50:04;11.77;;;8.70;;
7703;SDS011;3894;49.700;10.770;2022-07-23T09:52:34;11.65;;;8.93;;
7703;SDS011;3894;49.700;10.770;2022-07-23T09:55:06;13.07;;;8.52;;
7703;SDS011;3894;49.700;10.770;2022-07-23T09:57:32;12.98;;;9.00;;
7703;SDS011;3894;49.700;10.770;2022-07-23T10:00:00;10.98;;;8.38;;
7703;SDS011;3894;49.700;10.770;2022-07-23T10:02:29;12.00;;;8.70;;
7703;SDS011;3894;49.700;10.770;2022-07-23T10:04:57;11.20;;;8.48;;
7703;SDS011;3894;49.700;10.770;2022-07-23T10:07:23;10.75;;;8.38;;
7703;SDS011;3894;49.700;10.770;2022-07-23T10:09:51;9.98;;;8.20;;
7703;SDS011;3894;49.700;10.770;2022-07-23T10:12:18;10.82;;;7.28;;
7703;SDS011;3894;49.700;10.770;2022-07-23T10:14:50;9.02;;;7.20;;
7703;SDS011;3894;49.700;10.770;2022-07-23T10:17:16;8.68;;;6.75;;
7703;SDS011;3894;49.700;10.770;2022-07-23T10:19:43;8.40;;;6.65;;
7703;SDS011;3894;49.700;10.770;2022-07-23T10:22:28;9.55;;;6.45;;
7703;SDS011;3894;49.700;10.770;2022-07-23T10:25:12;10.50;;;6.72;;
7703;SDS011;3894;49.700;10.770;2022-07-23T10:30:05;8.73;;;6.13;;
7703;SDS011;3894;49.700;10.770;2022-07-23T10:41:02;9.60;;;6.22;;
7703;SDS011;3894;49.700;10.770;2022-07-23T10:43:29;8.98;;;5.97;;
7703;SDS011;3894;49.700;10.770;2022-07-23T10:45:56;8.48;;;6.68;;
7703;SDS011;3894;49.700;10.770;2022-07-23T10:48:41;8.00;;;5.93;;
7703;SDS011;3894;49.700;10.770;2022-07-23T10:51:11;7.95;;;6.18;;
7703;SDS011;3894;49.700;10.770;2022-07-23T10:54:13;8.15;;;6.47;;
7703;SDS011;3894;49.700;10.770;2022-07-23T10:59:20;7.82;;;6.32;;
7703;SDS011;3894;49.700;10.770;2022-07-23T11:01:47;9.80;;;6.57;;
7703;SDS011;3894;49.700;10.770;2022-07-23T11:04:12;9.70;;;6.70;;
7703;SDS011;3894;49.700;10.770;2022-07-23T11:17:22;7.95;;;6.45;;
7703;SDS011;3894;49.700;10.770;2022-07-23T11:22:55;8.63;;;7.03;;
7703;SDS011;3894;49.700;10.770;2022-07-23T11:27:47;8.02;;;5.80;;
7703;SDS011;3894;49.700;10.770;2022-07-23T11:32:51;8.38;;;6.50;;
7703;SDS011;3894;49.700;10.770;2022-07-23T11:35:19;9.20;;;7.13;;
7703;SDS011;3894;49.700;10.770;2022-07-23T11:37:49;8.52;;;6.85;;
7703;SDS011;3894;49.700;10.770;2022-07-23T11:40:35;8.50;;;6.38;;
7703;SDS011;3894;49.700;10.770;2022-07-23T11:43:02;8.05;;;6.43;;
7703;SDS011;3894;49.700;10.770;2022-07-23T11:45:33;8.43;;;6.35;;
7703;SDS011;3894;49.700;10.770;2022-07-23T11:48:02;8.10;;;5.97;;
7703;SDS011;3894;49.700;10.770;2022-07-23T11:50:32;7.25;;;6.30;;
7703;SDS011;3894;49.700;10.770;2022-07-23T11:52:58;12.30;;;9.25;;
7703;SDS011;3894;49.700;10.770;2022-07-23T11:55:24;10.95;;;8.32;;
7703;SDS011;3894;49.700;10.770;2022-07-23T11:57:51;10.68;;;8.20;;
7703;SDS011;3894;49.700;10.770;2022-07-23T12:00:18;8.93;;;7.20;;
7703;SDS011;3894;49.700;10.770;2022-07-23T12:02:58;14.88;;;10.82;;
7703;SDS011;3894;49.700;10.770;2022-07-23T12:05:27;11.25;;;9.68;;
7703;SDS011;3894;49.700;10.770;2022-07-23T12:08:01;10.70;;;7.60;;
7703;SDS011;3894;49.700;10.770;2022-07-23T12:10:32;8.57;;;6.20;;
7703;SDS011;3894;49.700;10.770;2022-07-23T12:13:01;8.68;;;6.65;;
7703;SDS011;3894;49.700;10.770;2022-07-23T12:15:33;7.90;;;6.70;;
7703;SDS011;3894;49.700;10.770;2022-07-23T12:18:03;9.13;;;7.78;;
7703;SDS011;3894;49.700;10.770;2022-07-23T12:20:30;7.45;;;6.28;;
7703;SDS011;3894;49.700;10.770;2022-07-23T12:23:00;10.88;;;6.47;;
7703;SDS011;3894;49.700;10.770;2022-07-23T12:25:32;9.95;;;7.13;;
7703;SDS011;3894;49.700;10.770;2022-07-23T12:28:06;8.73;;;7.18;;
7703;SDS011;3894;49.700;10.770;2022-07-23T12:33:08;9.55;;;7.07;;
7703;SDS011;3894;49.700;10.770;2022-07-23T12:35:40;10.25;;;7.13;;
7703;SDS011;3894;49.700;10.770;2022-07-23T12:38:09;7.32;;;5.85;;
7703;SDS011;3894;49.700;10.770;2022-07-23T12:40:45;10.90;;;7.20;;
7703;SDS011;3894;49.700;10.770;2022-07-23T12:43:46;8.60;;;6.38;;
7703;SDS011;3894;49.700;10.770;2022-07-23T12:51:22;8.23;;;5.93;;
7703;SDS011;3894;49.700;10.770;2022-07-23T12:53:51;8.48;;;5.90;;
7703;SDS011;3894;49.700;10.770;2022-07-23T12:56:21;7.50;;;6.10;;
7703;SDS011;3894;49.700;10.770;2022-07-23T12:59:05;9.60;;;6.13;;
7703;SDS011;3894;49.700;10.770;2022-07-23T13:01:33;7.53;;;5.78;;
7703;SDS011;3894;49.700;10.770;2022-07-23T13:06:41;9.73;;;6.25;;
7703;SDS011;3894;49.700;10.770;2022-07-23T13:09:09;7.75;;;5.75;;
7703;SDS011;3894;49.700;10.770;2022-07-23T13:11:42;8.52;;;6.07;;
7703;SDS011;3894;49.700;10.770;2022-07-23T13:14:10;7.38;;;5.75;;
7703;SDS011;3894;49.700;10.770;2022-07-23T13:16:39;8.07;;;6.18;;
7703;SDS011;3894;49.700;10.770;2022-07-23T13:19:09;7.97;;;5.97;;
7703;SDS011;3894;49.700;10.770;2022-07-23T13:21:35;9.00;;;5.82;;
7703;SDS011;3894;49.700;10.770;2022-07-23T13:24:00;8.90;;;6.20;;
7703;SDS011;3894;49.700;10.770;2022-07-23T13:26:26;9.35;;;6.10;;
7703;SDS011;3894;49.700;10.770;2022-07-23T13:28:52;8.35;;;6.43;;
7703;SDS011;3894;49.700;10.770;2022-07-23T13:31:19;8.07;;;5.78;;
7703;SDS011;3894;49.700;10.770;2022-07-23T13:33:45;9.15;;;5.75;;
7703;SDS011;3894;49.700;10.770;2022-07-23T13:36:11;9.68;;;6.10;;
7703;SDS011;3894;49.700;10.770;2022-07-23T13:38:37;8.35;;;6.32;;
7703;SDS011;3894;49.700;10.770;2022-07-23T13:41:04;8.50;;;6.53;;
7703;SDS011;3894;49.700;10.770;2022-07-23T13:43:29;10.30;;;7.13;;
7703;SDS011;3894;49.700;10.770;2022-07-23T13:45:55;6.78;;;5.88;;
7703;SDS011;3894;49.700;10.770;2022-07-23T13:48:21;7.80;;;5.82;;
7703;SDS011;3894;49.700;10.770;2022-07-23T13:50:47;8.55;;;6.53;;
7703;SDS011;3894;49.700;10.770;2022-07-23T13:53:18;7.60;;;5.82;;
7703;SDS011;3894;49.700;10.770;2022-07-23T13:55:51;9.30;;;6.68;;
7703;SDS011;3894;49.700;10.770;2022-07-23T13:58:18;8.35;;;6.03;;
7703;SDS011;3894;49.700;10.770;2022-07-23T14:00:45;7.78;;;6.18;;
7703;SDS011;3894;49.700;10.770;2022-07-23T14:03:12;8.13;;;6.20;;
7703;SDS011;3894;49.700;10.770;2022-07-23T14:05:38;7.97;;;5.70;;
7703;SDS011;3894;49.700;10.770;2022-07-23T14:08:05;9.32;;;6.82;;
7703;SDS011;3894;49.700;10.770;2022-07-23T14:10:37;7.45;;;6.15;;
7703;SDS011;3894;49.700;10.770;2022-07-23T14:13:03;8.93;;;6.00;;
7703;SDS011;3894;49.700;10.770;2022-07-23T14:15:29;9.77;;;6.18;;
7703;SDS011;3894;49.700;10.770;2022-07-23T14:17:56;8.90;;;6.45;;
7703;SDS011;3894;49.700;10.770;2022-07-23T14:20:22;7.97;;;6.00;;
7703;SDS011;3894;49.700;10.770;2022-07-23T14:22:48;9.70;;;6.53;;
7703;SDS011;3894;49.700;10.770;2022-07-23T14:25:21;9.07;;;6.22;;
7703;SDS011;3894;49.700;10.770;2022-07-23T14:27:47;8.43;;;6.38;;
7703;SDS011;3894;49.700;10.770;2022-07-23T14:30:13;7.75;;;6.30;;
7703;SDS011;3894;49.700;10.770;2022-07-23T14:32:46;7.70;;;6.00;;
7703;SDS011;3894;49.700;10.770;2022-07-23T14:35:11;8.25;;;6.07;;
7703;SDS011;3894;49.700;10.770;2022-07-23T14:37:38;8.43;;;5.90;;
7703;SDS011;3894;49.700;10.770;2022-07-23T14:40:04;9.40;;;6.50;;
7703;SDS011;3894;49.700;10.770;2022-07-23T14:42:30;7.95;;;6.78;;
7703;SDS011;3894;49.700;10.770;2022-07-23T14:44:56;8.20;;;6.40;;
7703;SDS011;3894;49.700;10.770;2022-07-23T14:47:22;10.05;;;6.68;;
7703;SDS011;3894;49.700;10.770;2022-07-23T14:49:48;8.85;;;6.65;;
7703;SDS011;3894;49.700;10.770;2022-07-23T14:52:14;8.02;;;6.60;;
7703;SDS011;3894;49.700;10.770;2022-07-23T14:54:40;7.18;;;5.75;;
7703;SDS011;3894;49.700;10.770;2022-07-23T14:57:06;9.73;;;6.45;;
7703;SDS011;3894;49.700;10.770;2022-07-23T14:59:34;9.05;;;5.80;;
7703;SDS011;3894;49.700;10.770;2022-07-23T15:02:00;8.27;;;6.40;;
7703;SDS011;3894;49.700;10.770;2022-07-23T15:04:25;7.78;;;6.43;;
7703;SDS011;3894;49.700;10.770;2022-07-23T15:06:51;7.97;;;6.05;;
7703;SDS011;3894;49.700;10.770;2022-07-23T15:09:17;10.48;;;6.25;;
7703;SDS011;3894;49.700;10.770;2022-07-23T15:11:45;7.57;;;6.18;;
7703;SDS011;3894;49.700;10.770;2022-07-23T15:14:11;7.78;;;6.40;;
7703;SDS011;3894;49.700;10.770;2022-07-23T15:16:37;7.72;;;6.15;;
7703;SDS011;3894;49.700;10.770;2022-07-23T15:19:03;6.38;;;5.75;;
7703;SDS011;3894;49.700;10.770;2022-07-23T15:21:34;9.30;;;6.00;;
7703;SDS011;3894;49.700;10.770;2022-07-23T15:24:00;10.85;;;6.43;;
7703;SDS011;3894;49.700;10.770;2022-07-23T15:26:29;8.43;;;5.95;;
7703;SDS011;3894;49.700;10.770;2022-07-23T15:28:55;7.95;;;6.03;;
7703;SDS011;3894;49.700;10.770;2022-07-23T15:31:23;7.60;;;5.43;;
7703;SDS011;3894;49.700;10.770;2022-07-23T15:33:49;8.70;;;7.22;;